»·PEaware :: N828SP KBFL-KWHP

N828SP :: KBFL-KWHP

FLIGHT INFORMATION

Flight Status: Arrived
Operator: Privately registered:
United States
More flights under this callsign
Pilot: Jon S. (43478)
Aircraft: CESSNA 172 SKYHAWK
(C172)
More flights by this aircraft type
Origin: KBFL Meadows
United States
Destination: KWHP Whiteman
United States
More flights between these airports :: More routes between these airports
Route:
File this flight plan on PilotEdge
Remarks:
Altitude:
(Current/Filed)
7,500ft
Speed:
(Current/Filed)
0kts
Departed: 13-Aug-23 11:24 AM
Arrived: 13-Aug-23 12:14 PM
Distance/Time
Traveled:
77nm/0:50
Distance/Time
To Go:
Arrived

Flight Plot

Page will automatically refresh every two minutes.


Map Options




Map Legend


Flown Route
Filed Route
Departure Airport
Arrival Airport
Navaid (VOR, NDB)
Fix

Horizontal Profiles

Position Reports

Time Latitude Longitude Heading Altitude Ground
Speed
13-Aug-23 11:21 35.425807 -119.044985 226 479ft 0kts
13-Aug-23 11:21 35.425807 -119.044985 226 479ft 0kts
13-Aug-23 11:22 35.425807 -119.044985 226 479ft 0kts
13-Aug-23 11:24 35.435486 -119.058281 308 877ft 72kts
13-Aug-23 11:24 35.445729 -119.073714 299 1559ft 68kts
13-Aug-23 11:25 35.450346 -119.093529 221 2339ft 61kts
13-Aug-23 11:26 35.433456 -119.096333 164 3024ft 72kts
13-Aug-23 11:27 35.410498 -119.087921 166 3640ft 91kts
13-Aug-23 11:28 35.387171 -119.076105 159 4333ft 94kts
13-Aug-23 11:29 35.363221 -119.065953 164 5037ft 90kts
13-Aug-23 11:30 35.339579 -119.054558 159 5700ft 86kts
13-Aug-23 11:31 35.317581 -119.044168 161 6319ft 84kts
13-Aug-23 11:32 35.295133 -119.034375 163 6857ft 87kts
13-Aug-23 11:33 35.271566 -119.025642 163 7324ft 93kts
13-Aug-23 11:34 35.244817 -119.015556 164 7534ft 105kts
13-Aug-23 11:35 35.216333 -119.005736 163 7566ft 106kts
13-Aug-23 11:36 35.187705 -118.996604 165 7597ft 106kts
13-Aug-23 11:37 35.159092 -118.987439 164 7625ft 106kts
13-Aug-23 11:38 35.130110 -118.977932 157 7646ft 107kts
13-Aug-23 11:39 35.102758 -118.962034 153 7644ft 108kts
13-Aug-23 11:40 35.075733 -118.945667 152 7651ft 108kts
13-Aug-23 11:41 35.049041 -118.928786 152 7658ft 108kts
13-Aug-23 11:42 35.021409 -118.914163 155 7667ft 107kts
13-Aug-23 11:43 34.993089 -118.902095 157 7666ft 107kts
13-Aug-23 11:44 34.964793 -118.889520 156 7675ft 106kts
13-Aug-23 11:45 34.936964 -118.877504 156 7674ft 107kts
13-Aug-23 11:46 34.910226 -118.863851 154 7715ft 105kts
13-Aug-23 11:47 34.883251 -118.850510 154 7681ft 109kts
13-Aug-23 11:48 34.856473 -118.837652 154 7737ft 106kts
13-Aug-23 11:49 34.829878 -118.824685 159 7832ft 102kts
13-Aug-23 11:50 34.802388 -118.812188 156 7805ft 104kts
13-Aug-23 11:51 34.776031 -118.798267 151 7841ft 102kts
13-Aug-23 11:52 34.749563 -118.784024 153 7821ft 105kts
13-Aug-23 11:53 34.723399 -118.768849 151 7827ft 102kts
13-Aug-23 11:54 34.697234 -118.752625 148 7822ft 102kts
13-Aug-23 11:55 34.672529 -118.734057 148 7775ft 105kts
13-Aug-23 11:56 34.646799 -118.717791 150 7838ft 101kts
13-Aug-23 11:57 34.620297 -118.702212 151 7831ft 108kts
13-Aug-23 11:58 34.593994 -118.686140 149 7815ft 106kts
13-Aug-23 11:59 34.568430 -118.668510 147 7696ft 100kts
13-Aug-23 12:00 34.543359 -118.652792 155 7059ft 104kts
13-Aug-23 12:01 34.516812 -118.638715 152 6356ft 106kts
13-Aug-23 12:02 34.490301 -118.623238 150 5771ft 105kts
13-Aug-23 12:03 34.464029 -118.607594 149 5207ft 105kts
13-Aug-23 12:04 34.437547 -118.592761 155 4642ft 101kts
13-Aug-23 12:05 34.413213 -118.574865 140 4233ft 103kts
13-Aug-23 12:06 34.391797 -118.553656 137 4143ft 101kts
13-Aug-23 12:07 34.369596 -118.532344 138 4010ft 101kts
13-Aug-23 12:08 34.347994 -118.509384 134 3776ft 103kts
13-Aug-23 12:09 34.326545 -118.485303 133 3530ft 103kts
13-Aug-23 12:10 34.305041 -118.460673 138 2863ft 104kts
13-Aug-23 12:11 34.283210 -118.438043 143 1979ft 98kts
13-Aug-23 12:12 34.263463 -118.417836 141 1101ft 79kts
13-Aug-23 12:13 34.255634 -118.408946 326 970ft 0kts
13-Aug-23 12:14 34.256925 -118.410295 319 976ft 20kts
13-Aug-23 12:15 34.260486 -118.412022 51 998ft 11kts

Navigation Log

Ident Type
Flight plan parsing failed, navigation log unavailable